sensor_id;sensor_type;location;lat;lon;timestamp;temperature;humidity
58568;DHT22;44354;46.192;-1.076;2022-12-26T00:00:56;11.40;99.90
58568;DHT22;44354;46.192;-1.076;2022-12-26T00:03:22;11.30;99.90
58568;DHT22;44354;46.192;-1.076;2022-12-26T00:05:48;11.30;99.90
58568;DHT22;44354;46.192;-1.076;2022-12-26T00:08:14;11.30;99.90
58568;DHT22;44354;46.192;-1.076;2022-12-26T00:10:39;11.30;99.90
58568;DHT22;44354;46.192;-1.076;2022-12-26T00:13:05;11.30;99.90
58568;DHT22;44354;46.192;-1.076;2022-12-26T00:15:31;11.30;99.90
58568;DHT22;44354;46.192;-1.076;2022-12-26T00:17:57;11.30;99.90
58568;DHT22;44354;46.192;-1.076;2022-12-26T00:20:22;11.30;99.90
58568;DHT22;44354;46.192;-1.076;2022-12-26T00:22:48;11.40;99.90
58568;DHT22;44354;46.192;-1.076;2022-12-26T00:25:14;11.40;99.90
58568;DHT22;44354;46.192;-1.076;2022-12-26T00:27:39;11.40;99.90
58568;DHT22;44354;46.192;-1.076;2022-12-26T00:30:05;11.40;99.90
58568;DHT22;44354;46.192;-1.076;2022-12-26T00:32:31;11.30;99.90
58568;DHT22;44354;46.192;-1.076;2022-12-26T00:34:57;11.30;99.90
58568;DHT22;44354;46.192;-1.076;2022-12-26T00:37:22;11.30;99.90
58568;DHT22;44354;46.192;-1.076;2022-12-26T00:39:48;11.30;99.90
58568;DHT22;44354;46.192;-1.076;2022-12-26T00:42:14;11.30;99.90
58568;DHT22;44354;46.192;-1.076;2022-12-26T00:44:39;11.30;99.90
58568;DHT22;44354;46.192;-1.076;2022-12-26T00:47:05;11.30;99.90
58568;DHT22;44354;46.192;-1.076;2022-12-26T00:49:30;11.30;99.90
58568;DHT22;44354;46.192;-1.076;2022-12-26T00:51:56;11.30;99.90
58568;DHT22;44354;46.192;-1.076;2022-12-26T00:54:22;11.30;99.90
58568;DHT22;44354;46.192;-1.076;2022-12-26T00:56:47;11.30;99.90
58568;DHT22;44354;46.192;-1.076;2022-12-26T00:59:13;11.30;99.90
58568;DHT22;44354;46.192;-1.076;2022-12-26T01:01:39;11.30;99.90
58568;DHT22;44354;46.192;-1.076;2022-12-26T01:04:04;11.40;99.90
58568;DHT22;44354;46.192;-1.076;2022-12-26T01:06:30;11.40;99.90
58568;DHT22;44354;46.192;-1.076;2022-12-26T01:08:55;11.40;99.90
58568;DHT22;44354;46.192;-1.076;2022-12-26T01:11:21;11.30;99.90
58568;DHT22;44354;46.192;-1.076;2022-12-26T01:14:10;11.40;99.90
58568;DHT22;44354;46.192;-1.076;2022-12-26T01:16:37;11.40;99.90
58568;DHT22;44354;46.192;-1.076;2022-12-26T01:19:04;11.40;99.90
58568;DHT22;44354;46.192;-1.076;2022-12-26T01:21:30;11.40;99.90
58568;DHT22;44354;46.192;-1.076;2022-12-26T01:23:55;11.40;99.90
58568;DHT22;44354;46.192;-1.076;2022-12-26T01:26:21;11.40;99.90
58568;DHT22;44354;46.192;-1.076;2022-12-26T01:28:48;11.40;99.90
58568;DHT22;44354;46.192;-1.076;2022-12-26T01:31:13;11.40;99.90
58568;DHT22;44354;46.192;-1.076;2022-12-26T01:33:39;11.40;99.90
58568;DHT22;44354;46.192;-1.076;2022-12-26T01:36:05;11.40;99.90
58568;DHT22;44354;46.192;-1.076;2022-12-26T01:38:30;11.40;99.90
58568;DHT22;44354;46.192;-1.076;2022-12-26T01:40:56;11.40;99.90
58568;DHT22;44354;46.192;-1.076;2022-12-26T01:44:01;11.40;99.90
58568;DHT22;44354;46.192;-1.076;2022-12-26T01:46:31;11.40;99.90
58568;DHT22;44354;46.192;-1.076;2022-12-26T01:49:01;11.50;99.90
58568;DHT22;44354;46.192;-1.076;2022-12-26T01:51:32;11.50;99.90
58568;DHT22;44354;46.192;-1.076;2022-12-26T01:54:01;11.40;99.90
58568;DHT22;44354;46.192;-1.076;2022-12-26T01:56:33;11.40;99.90
58568;DHT22;44354;46.192;-1.076;2022-12-26T01:59:09;11.40;99.90
58568;DHT22;44354;46.192;-1.076;2022-12-26T02:01:38;11.40;99.90
58568;DHT22;44354;46.192;-1.076;2022-12-26T02:04:08;11.40;99.90
58568;DHT22;44354;46.192;-1.076;2022-12-26T02:06:52;11.40;99.90
58568;DHT22;44354;46.192;-1.076;2022-12-26T02:09:19;11.40;99.90
58568;DHT22;44354;46.192;-1.076;2022-12-26T02:11:51;11.30;99.90
58568;DHT22;44354;46.192;-1.076;2022-12-26T02:14:18;11.30;99.90
58568;DHT22;44354;46.192;-1.076;2022-12-26T02:16:44;11.30;99.90
58568;DHT22;44354;46.192;-1.076;2022-12-26T02:33:14;11.40;99.90
58568;DHT22;44354;46.192;-1.076;2022-12-26T02:49:20;11.50;99.90
58568;DHT22;44354;46.192;-1.076;2022-12-26T02:52:04;11.50;99.90
58568;DHT22;44354;46.192;-1.076;2022-12-26T02:54:56;11.50;99.90
58568;DHT22;44354;46.192;-1.076;2022-12-26T02:57:53;11.40;99.90
58568;DHT22;44354;46.192;-1.076;2022-12-26T03:00:43;11.40;99.90
58568;DHT22;44354;46.192;-1.076;2022-12-26T03:03:30;11.40;99.90
58568;DHT22;44354;46.192;-1.076;2022-12-26T03:06:21;11.40;99.90
58568;DHT22;44354;46.192;-1.076;2022-12-26T03:09:17;11.40;99.90
58568;DHT22;44354;46.192;-1.076;2022-12-26T03:12:53;11.30;99.90
58568;DHT22;44354;46.192;-1.076;2022-12-26T03:15:14;11.30;99.90
58568;DHT22;44354;46.192;-1.076;2022-12-26T03:17:48;11.30;99.90
58568;DHT22;44354;46.192;-1.076;2022-12-26T03:20:18;11.30;99.90
58568;DHT22;44354;46.192;-1.076;2022-12-26T03:22:59;11.30;99.90
58568;DHT22;44354;46.192;-1.076;2022-12-26T03:28:09;11.30;99.90
58568;DHT22;44354;46.192;-1.076;2022-12-26T03:30:35;11.30;99.90
58568;DHT22;44354;46.192;-1.076;2022-12-26T03:33:14;11.30;99.90
58568;DHT22;44354;46.192;-1.076;2022-12-26T03:35:59;11.30;99.90
58568;DHT22;44354;46.192;-1.076;2022-12-26T03:38:38;11.30;99.90
58568;DHT22;44354;46.192;-1.076;2022-12-26T03:41:24;11.30;99.90
58568;DHT22;44354;46.192;-1.076;2022-12-26T03:50:34;11.20;99.90
58568;DHT22;44354;46.192;-1.076;2022-12-26T03:53:27;11.20;99.90
58568;DHT22;44354;46.192;-1.076;2022-12-26T03:59:35;11.20;99.90
58568;DHT22;44354;46.192;-1.076;2022-12-26T04:02:21;11.10;99.90
58568;DHT22;44354;46.192;-1.076;2022-12-26T04:05:08;11.10;99.90
58568;DHT22;44354;46.192;-1.076;2022-12-26T04:07:58;11.10;99.90
58568;DHT22;44354;46.192;-1.076;2022-12-26T04:10:50;11.10;99.90
58568;DHT22;44354;46.192;-1.076;2022-12-26T04:13:53;11.00;99.90
58568;DHT22;44354;46.192;-1.076;2022-12-26T04:16:58;11.00;99.90
58568;DHT22;44354;46.192;-1.076;2022-12-26T04:25:43;10.90;99.90
58568;DHT22;44354;46.192;-1.076;2022-12-26T04:28:28;10.90;99.90
58568;DHT22;44354;46.192;-1.076;2022-12-26T04:31:16;10.90;99.90
58568;DHT22;44354;46.192;-1.076;2022-12-26T04:34:08;10.90;99.90
58568;DHT22;44354;46.192;-1.076;2022-12-26T04:36:59;10.90;99.90
58568;DHT22;44354;46.192;-1.076;2022-12-26T04:39:47;10.90;99.90
58568;DHT22;44354;46.192;-1.076;2022-12-26T04:42:33;10.90;99.90
58568;DHT22;44354;46.192;-1.076;2022-12-26T04:45:18;10.90;99.90
58568;DHT22;44354;46.192;-1.076;2022-12-26T04:47:44;10.80;99.90
58568;DHT22;44354;46.192;-1.076;2022-12-26T04:50:29;10.80;99.90
58568;DHT22;44354;46.192;-1.076;2022-12-26T04:52:55;10.70;99.90
58568;DHT22;44354;46.192;-1.076;2022-12-26T04:55:25;10.70;99.90
58568;DHT22;44354;46.192;-1.076;2022-12-26T04:57:52;10.60;99.90
58568;DHT22;44354;46.192;-1.076;2022-12-26T05:00:18;10.50;99.90
58568;DHT22;44354;46.192;-1.076;2022-12-26T05:02:44;10.40;99.90
58568;DHT22;44354;46.192;-1.076;2022-12-26T05:05:36;10.40;99.90
58568;DHT22;44354;46.192;-1.076;2022-12-26T05:08:42;10.40;99.90
58568;DHT22;44354;46.192;-1.076;2022-12-26T05:11:28;10.40;99.90
58568;DHT22;44354;46.192;-1.076;2022-12-26T05:13:55;10.30;99.90
58568;DHT22;44354;46.192;-1.076;2022-12-26T05:16:22;10.30;99.90
58568;DHT22;44354;46.192;-1.076;2022-12-26T05:19:13;10.20;99.90
58568;DHT22;44354;46.192;-1.076;2022-12-26T05:21:58;10.30;99.90
58568;DHT22;44354;46.192;-1.076;2022-12-26T05:24:42;10.30;99.90
58568;DHT22;44354;46.192;-1.076;2022-12-26T05:27:34;10.40;99.90
58568;DHT22;44354;46.192;-1.076;2022-12-26T05:30:19;10.40;99.90
58568;DHT22;44354;46.192;-1.076;2022-12-26T05:32:45;10.40;99.90
58568;DHT22;44354;46.192;-1.076;2022-12-26T05:35:29;10.40;99.90
58568;DHT22;44354;46.192;-1.076;2022-12-26T05:37:55;10.40;99.90
58568;DHT22;44354;46.192;-1.076;2022-12-26T05:40:20;10.30;99.90
58568;DHT22;44354;46.192;-1.076;2022-12-26T05:42:46;10.20;99.90
58568;DHT22;44354;46.192;-1.076;2022-12-26T05:45:12;10.20;99.90
58568;DHT22;44354;46.192;-1.076;2022-12-26T05:47:37;10.20;99.90
58568;DHT22;44354;46.192;-1.076;2022-12-26T05:50:04;10.10;99.90
58568;DHT22;44354;46.192;-1.076;2022-12-26T05:52:29;10.20;99.90
58568;DHT22;44354;46.192;-1.076;2022-12-26T05:54:55;10.30;99.90
58568;DHT22;44354;46.192;-1.076;2022-12-26T05:57:21;10.30;99.90
58568;DHT22;44354;46.192;-1.076;2022-12-26T05:59:46;10.30;99.90
58568;DHT22;44354;46.192;-1.076;2022-12-26T06:02:12;10.30;99.90
58568;DHT22;44354;46.192;-1.076;2022-12-26T06:04:38;10.30;99.90
58568;DHT22;44354;46.192;-1.076;2022-12-26T06:07:03;10.30;99.90
58568;DHT22;44354;46.192;-1.076;2022-12-26T06:09:29;10.30;99.90
58568;DHT22;44354;46.192;-1.076;2022-12-26T06:11:55;10.30;99.90
58568;DHT22;44354;46.192;-1.076;2022-12-26T06:14:20;10.30;99.90
58568;DHT22;44354;46.192;-1.076;2022-12-26T06:16:46;10.30;99.90
58568;DHT22;44354;46.192;-1.076;2022-12-26T06:19:12;10.30;99.90
58568;DHT22;44354;46.192;-1.076;2022-12-26T06:21:37;10.30;99.90
58568;DHT22;44354;46.192;-1.076;2022-12-26T06:24:03;10.30;99.90
58568;DHT22;44354;46.192;-1.076;2022-12-26T06:26:29;10.30;99.90
58568;DHT22;44354;46.192;-1.076;2022-12-26T06:28:54;10.30;99.90
58568;DHT22;44354;46.192;-1.076;2022-12-26T06:31:22;10.40;99.90
58568;DHT22;44354;46.192;-1.076;2022-12-26T06:33:55;10.40;99.90
58568;DHT22;44354;46.192;-1.076;2022-12-26T06:36:24;10.40;99.90
58568;DHT22;44354;46.192;-1.076;2022-12-26T06:38:50;10.50;99.90
58568;DHT22;44354;46.192;-1.076;2022-12-26T06:41:17;10.50;99.90
58568;DHT22;44354;46.192;-1.076;2022-12-26T06:43:44;10.50;99.90
58568;DHT22;44354;46.192;-1.076;2022-12-26T06:46:15;10.50;99.90
58568;DHT22;44354;46.192;-1.076;2022-12-26T06:48:42;10.50;99.90
58568;DHT22;44354;46.192;-1.076;2022-12-26T06:51:12;10.50;99.90
58568;DHT22;44354;46.192;-1.076;2022-12-26T06:53:39;10.50;99.90
58568;DHT22;44354;46.192;-1.076;2022-12-26T06:56:13;10.50;99.90
58568;DHT22;44354;46.192;-1.076;2022-12-26T06:58:39;10.50;99.90
58568;DHT22;44354;46.192;-1.076;2022-12-26T07:01:23;10.60;99.90
58568;DHT22;44354;46.192;-1.076;2022-12-26T07:03:51;10.60;99.90
58568;DHT22;44354;46.192;-1.076;2022-12-26T07:06:24;10.70;99.90
58568;DHT22;44354;46.192;-1.076;2022-12-26T07:08:51;10.60;99.90
58568;DHT22;44354;46.192;-1.076;2022-12-26T07:11:19;10.60;99.90
58568;DHT22;44354;46.192;-1.076;2022-12-26T07:13:45;10.60;99.90
58568;DHT22;44354;46.192;-1.076;2022-12-26T07:16:11;10.60;99.90
58568;DHT22;44354;46.192;-1.076;2022-12-26T07:18:37;10.50;99.90
58568;DHT22;44354;46.192;-1.076;2022-12-26T07:21:10;10.50;99.90
58568;DHT22;44354;46.192;-1.076;2022-12-26T07:23:36;10.50;99.90
58568;DHT22;44354;46.192;-1.076;2022-12-26T07:26:03;10.50;99.90
58568;DHT22;44354;46.192;-1.076;2022-12-26T07:28:29;10.60;99.90
58568;DHT22;44354;46.192;-1.076;2022-12-26T07:30:55;10.70;99.90
58568;DHT22;44354;46.192;-1.076;2022-12-26T07:33:22;10.60;99.90
58568;DHT22;44354;46.192;-1.076;2022-12-26T07:35:48;10.60;99.90
58568;DHT22;44354;46.192;-1.076;2022-12-26T07:38:14;10.70;99.90
58568;DHT22;44354;46.192;-1.076;2022-12-26T07:40:40;10.70;99.90
58568;DHT22;44354;46.192;-1.076;2022-12-26T07:43:05;10.70;99.90
58568;DHT22;44354;46.192;-1.076;2022-12-26T07:45:31;10.70;99.90
58568;DHT22;44354;46.192;-1.076;2022-12-26T07:47:57;10.70;99.90
58568;DHT22;44354;46.192;-1.076;2022-12-26T07:50:26;10.70;99.90
58568;DHT22;44354;46.192;-1.076;2022-12-26T07:52:52;10.70;99.90
58568;DHT22;44354;46.192;-1.076;2022-12-26T07:55:18;10.70;99.90
58568;DHT22;44354;46.192;-1.076;2022-12-26T07:57:48;10.70;99.90
58568;DHT22;44354;46.192;-1.076;2022-12-26T08:00:13;10.70;99.90
58568;DHT22;44354;46.192;-1.076;2022-12-26T08:02:39;10.70;99.90
58568;DHT22;44354;46.192;-1.076;2022-12-26T08:05:05;10.70;99.90
58568;DHT22;44354;46.192;-1.076;2022-12-26T08:07:31;10.80;99.90
58568;DHT22;44354;46.192;-1.076;2022-12-26T08:09:56;10.80;99.90
58568;DHT22;44354;46.192;-1.076;2022-12-26T08:12:22;10.90;99.90
58568;DHT22;44354;46.192;-1.076;2022-12-26T08:14:49;10.90;99.90
58568;DHT22;44354;46.192;-1.076;2022-12-26T08:17:15;10.90;99.90
58568;DHT22;44354;46.192;-1.076;2022-12-26T08:19:41;10.90;99.90
58568;DHT22;44354;46.192;-1.076;2022-12-26T08:22:06;11.00;99.90
58568;DHT22;44354;46.192;-1.076;2022-12-26T08:24:32;11.00;99.90
58568;DHT22;44354;46.192;-1.076;2022-12-26T08:26:58;11.10;99.90
58568;DHT22;44354;46.192;-1.076;2022-12-26T08:29:23;11.10;99.90
58568;DHT22;44354;46.192;-1.076;2022-12-26T08:31:49;11.10;99.90
58568;DHT22;44354;46.192;-1.076;2022-12-26T08:34:15;11.10;99.90
58568;DHT22;44354;46.192;-1.076;2022-12-26T08:36:40;11.10;99.90
58568;DHT22;44354;46.192;-1.076;2022-12-26T08:39:06;11.10;99.90
58568;DHT22;44354;46.192;-1.076;2022-12-26T08:41:32;11.10;99.90
58568;DHT22;44354;46.192;-1.076;2022-12-26T08:43:57;11.10;99.90
58568;DHT22;44354;46.192;-1.076;2022-12-26T08:46:23;11.10;99.90
58568;DHT22;44354;46.192;-1.076;2022-12-26T08:48:49;11.20;99.90
58568;DHT22;44354;46.192;-1.076;2022-12-26T08:51:17;11.30;99.90
58568;DHT22;44354;46.192;-1.076;2022-12-26T08:53:43;11.30;99.90
58568;DHT22;44354;46.192;-1.076;2022-12-26T08:56:13;11.40;99.90
58568;DHT22;44354;46.192;-1.076;2022-12-26T08:58:39;11.40;99.90
58568;DHT22;44354;46.192;-1.076;2022-12-26T09:01:17;11.40;99.90
58568;DHT22;44354;46.192;-1.076;2022-12-26T09:03:43;11.40;99.90
58568;DHT22;44354;46.192;-1.076;2022-12-26T09:06:10;11.50;99.90
58568;DHT22;44354;46.192;-1.076;2022-12-26T09:08:38;11.40;99.90
58568;DHT22;44354;46.192;-1.076;2022-12-26T09:11:09;11.40;99.90
58568;DHT22;44354;46.192;-1.076;2022-12-26T09:13:35;11.20;99.90
58568;DHT22;44354;46.192;-1.076;2022-12-26T09:16:18;11.20;99.90
58568;DHT22;44354;46.192;-1.076;2022-12-26T09:18:44;11.20;99.90
58568;DHT22;44354;46.192;-1.076;2022-12-26T09:21:12;11.20;99.90
58568;DHT22;44354;46.192;-1.076;2022-12-26T09:23:39;11.20;99.90
58568;DHT22;44354;46.192;-1.076;2022-12-26T09:26:12;11.20;99.90
58568;DHT22;44354;46.192;-1.076;2022-12-26T09:28:38;11.20;99.90
58568;DHT22;44354;46.192;-1.076;2022-12-26T09:31:11;11.20;99.90
58568;DHT22;44354;46.192;-1.076;2022-12-26T09:33:37;11.20;99.90
58568;DHT22;44354;46.192;-1.076;2022-12-26T09:36:07;11.20;99.90
58568;DHT22;44354;46.192;-1.076;2022-12-26T09:38:34;11.20;99.90
58568;DHT22;44354;46.192;-1.076;2022-12-26T09:46:40;11.30;99.90
58568;DHT22;44354;46.192;-1.076;2022-12-26T09:49:15;11.30;99.90
58568;DHT22;44354;46.192;-1.076;2022-12-26T09:51:45;11.40;99.90
58568;DHT22;44354;46.192;-1.076;2022-12-26T09:54:26;11.40;99.90
58568;DHT22;44354;46.192;-1.076;2022-12-26T09:56:55;11.40;99.90
58568;DHT22;44354;46.192;-1.076;2022-12-26T09:59:22;11.40;99.90
58568;DHT22;44354;46.192;-1.076;2022-12-26T10:01:51;11.50;99.90
58568;DHT22;44354;46.192;-1.076;2022-12-26T10:04:24;11.50;99.90
58568;DHT22;44354;46.192;-1.076;2022-12-26T10:09:48;11.60;99.90
58568;DHT22;44354;46.192;-1.076;2022-12-26T10:17:48;11.60;99.90
58568;DHT22;44354;46.192;-1.076;2022-12-26T10:25:31;11.60;99.90
58568;DHT22;44354;46.192;-1.076;2022-12-26T10:28:00;11.70;99.90
58568;DHT22;44354;46.192;-1.076;2022-12-26T10:30:36;11.80;99.90
58568;DHT22;44354;46.192;-1.076;2022-12-26T10:33:11;11.80;99.90
58568;DHT22;44354;46.192;-1.076;2022-12-26T10:35:41;11.80;99.90
58568;DHT22;44354;46.192;-1.076;2022-12-26T10:38:18;11.90;99.90
58568;DHT22;44354;46.192;-1.076;2022-12-26T10:40:49;11.90;99.90
58568;DHT22;44354;46.192;-1.076;2022-12-26T10:46:10;12.00;99.90
58568;DHT22;44354;46.192;-1.076;2022-12-26T10:48:39;12.00;99.90
58568;DHT22;44354;46.192;-1.076;2022-12-26T10:51:05;12.10;99.90
58568;DHT22;44354;46.192;-1.076;2022-12-26T10:53:39;12.10;99.90
58568;DHT22;44354;46.192;-1.076;2022-12-26T10:56:06;12.10;99.90
58568;DHT22;44354;46.192;-1.076;2022-12-26T10:58:34;12.10;99.90
58568;DHT22;44354;46.192;-1.076;2022-12-26T11:01:35;12.20;99.90
58568;DHT22;44354;46.192;-1.076;2022-12-26T11:06:43;12.10;99.90
58568;DHT22;44354;46.192;-1.076;2022-12-26T11:09:39;12.10;99.90
58568;DHT22;44354;46.192;-1.076;2022-12-26T11:12:20;12.10;99.90
58568;DHT22;44354;46.192;-1.076;2022-12-26T11:14:47;12.10;99.90
58568;DHT22;44354;46.192;-1.076;2022-12-26T11:17:24;12.10;99.90
58568;DHT22;44354;46.192;-1.076;2022-12-26T11:22:35;12.20;99.90
58568;DHT22;44354;46.192;-1.076;2022-12-26T11:27:40;12.20;99.90
58568;DHT22;44354;46.192;-1.076;2022-12-26T11:30:33;12.20;99.90
58568;DHT22;44354;46.192;-1.076;2022-12-26T11:35:36;12.20;99.90
58568;DHT22;44354;46.192;-1.076;2022-12-26T11:38:14;12.30;99.90
58568;DHT22;44354;46.192;-1.076;2022-12-26T11:41:00;12.30;99.90
58568;DHT22;44354;46.192;-1.076;2022-12-26T11:43:44;12.30;99.90
58568;DHT22;44354;46.192;-1.076;2022-12-26T11:46:10;12.30;99.90
58568;DHT22;44354;46.192;-1.076;2022-12-26T11:48:37;12.30;99.90
58568;DHT22;44354;46.192;-1.076;2022-12-26T11:51:03;12.30;99.90
58568;DHT22;44354;46.192;-1.076;2022-12-26T11:53:29;12.40;99.90
58568;DHT22;44354;46.192;-1.076;2022-12-26T11:55:59;12.40;99.90
58568;DHT22;44354;46.192;-1.076;2022-12-26T11:58:28;12.40;99.90
58568;DHT22;44354;46.192;-1.076;2022-12-26T12:06:17;12.40;99.90
58568;DHT22;44354;46.192;-1.076;2022-12-26T12:12:00;12.40;99.90
58568;DHT22;44354;46.192;-1.076;2022-12-26T12:19:43;12.50;99.90
58568;DHT22;44354;46.192;-1.076;2022-12-26T12:27:30;12.50;99.90
58568;DHT22;44354;46.192;-1.076;2022-12-26T12:38:27;12.50;99.90
58568;DHT22;44354;46.192;-1.076;2022-12-26T12:41:05;12.40;99.90
58568;DHT22;44354;46.192;-1.076;2022-12-26T12:57:53;12.50;99.90
58568;DHT22;44354;46.192;-1.076;2022-12-26T13:00:23;12.50;99.90
58568;DHT22;44354;46.192;-1.076;2022-12-26T13:06:07;12.50;99.90
58568;DHT22;44354;46.192;-1.076;2022-12-26T13:08:53;12.50;99.90
58568;DHT22;44354;46.192;-1.076;2022-12-26T13:14:39;12.50;99.90
58568;DHT22;44354;46.192;-1.076;2022-12-26T13:16:54;12.40;99.90
58568;DHT22;44354;46.192;-1.076;2022-12-26T13:19:23;12.40;99.90
58568;DHT22;44354;46.192;-1.076;2022-12-26T13:21:51;12.30;99.90
58568;DHT22;44354;46.192;-1.076;2022-12-26T13:24:40;12.30;99.90
58568;DHT22;44354;46.192;-1.076;2022-12-26T13:27:27;12.10;99.90
58568;DHT22;44354;46.192;-1.076;2022-12-26T13:29:53;12.10;99.90
58568;DHT22;44354;46.192;-1.076;2022-12-26T13:32:27;12.00;99.90
58568;DHT22;44354;46.192;-1.076;2022-12-26T13:34:58;11.90;99.90
58568;DHT22;44354;46.192;-1.076;2022-12-26T13:53:42;12.20;99.90
58568;DHT22;44354;46.192;-1.076;2022-12-26T13:59:43;12.40;99.90
58568;DHT22;44354;46.192;-1.076;2022-12-26T14:02:19;12.40;99.90
58568;DHT22;44354;46.192;-1.076;2022-12-26T14:11:00;12.50;99.90
58568;DHT22;44354;46.192;-1.076;2022-12-26T14:26:57;12.30;99.90
58568;DHT22;44354;46.192;-1.076;2022-12-26T14:38:32;12.50;99.90
58568;DHT22;44354;46.192;-1.076;2022-12-26T14:41:07;12.40;99.90
58568;DHT22;44354;46.192;-1.076;2022-12-26T14:43:37;12.30;99.90
58568;DHT22;44354;46.192;-1.076;2022-12-26T14:49:16;12.10;99.90
58568;DHT22;44354;46.192;-1.076;2022-12-26T14:51:42;11.90;99.90
58568;DHT22;44354;46.192;-1.076;2022-12-26T14:54:26;11.80;99.90
58568;DHT22;44354;46.192;-1.076;2022-12-26T14:56:55;11.80;99.90
58568;DHT22;44354;46.192;-1.076;2022-12-26T14:59:32;11.80;99.90
58568;DHT22;44354;46.192;-1.076;2022-12-26T15:05:23;11.70;99.90
58568;DHT22;44354;46.192;-1.076;2022-12-26T15:15:42;11.80;99.90
58568;DHT22;44354;46.192;-1.076;2022-12-26T15:30:16;11.80;99.90
58568;DHT22;44354;46.192;-1.076;2022-12-26T15:33:03;11.80;99.90
58568;DHT22;44354;46.192;-1.076;2022-12-26T15:35:49;11.80;99.90
58568;DHT22;44354;46.192;-1.076;2022-12-26T15:46:24;11.70;99.90
58568;DHT22;44354;46.192;-1.076;2022-12-26T15:49:12;11.60;99.90
58568;DHT22;44354;46.192;-1.076;2022-12-26T15:57:48;11.10;99.90
58568;DHT22;44354;46.192;-1.076;2022-12-26T16:00:20;11.00;99.90
58568;DHT22;44354;46.192;-1.076;2022-12-26T16:02:48;11.00;99.90
58568;DHT22;44354;46.192;-1.076;2022-12-26T16:10:41;10.80;99.90
58568;DHT22;44354;46.192;-1.076;2022-12-26T16:13:14;10.80;99.90
58568;DHT22;44354;46.192;-1.076;2022-12-26T16:15:56;10.70;99.90
58568;DHT22;44354;46.192;-1.076;2022-12-26T16:18:27;10.60;99.90
58568;DHT22;44354;46.192;-1.076;2022-12-26T16:20:56;10.60;99.90
58568;DHT22;44354;46.192;-1.076;2022-12-26T16:23:43;10.50;99.90
58568;DHT22;44354;46.192;-1.076;2022-12-26T16:26:18;10.50;99.90
58568;DHT22;44354;46.192;-1.076;2022-12-26T16:28:47;10.50;99.90
58568;DHT22;44354;46.192;-1.076;2022-12-26T16:31:27;10.40;99.90
58568;DHT22;44354;46.192;-1.076;2022-12-26T16:33:57;10.40;99.90
58568;DHT22;44354;46.192;-1.076;2022-12-26T16:36:25;10.40;99.90
58568;DHT22;44354;46.192;-1.076;2022-12-26T16:38:52;10.30;99.90
58568;DHT22;44354;46.192;-1.076;2022-12-26T16:41:29;10.30;99.90
58568;DHT22;44354;46.192;-1.076;2022-12-26T16:43:56;10.20;99.90
58568;DHT22;44354;46.192;-1.076;2022-12-26T16:46:26;10.20;99.90
58568;DHT22;44354;46.192;-1.076;2022-12-26T16:49:00;10.20;99.90
58568;DHT22;44354;46.192;-1.076;2022-12-26T16:51:46;10.10;99.90
58568;DHT22;44354;46.192;-1.076;2022-12-26T16:56:47;10.10;99.90
58568;DHT22;44354;46.192;-1.076;2022-12-26T16:59:24;10.00;99.90
58568;DHT22;44354;46.192;-1.076;2022-12-26T17:01:55;10.00;99.90
58568;DHT22;44354;46.192;-1.076;2022-12-26T17:04:24;9.90;99.90
58568;DHT22;44354;46.192;-1.076;2022-12-26T17:07:02;9.90;99.90
58568;DHT22;44354;46.192;-1.076;2022-12-26T17:09:31;9.90;99.90
58568;DHT22;44354;46.192;-1.076;2022-12-26T17:12:06;9.90;99.90
58568;DHT22;44354;46.192;-1.076;2022-12-26T17:14:40;9.80;99.90
58568;DHT22;44354;46.192;-1.076;2022-12-26T17:19:53;9.70;99.90
58568;DHT22;44354;46.192;-1.076;2022-12-26T17:22:34;9.70;99.90
58568;DHT22;44354;46.192;-1.076;2022-12-26T17:25:32;9.60;99.90
58568;DHT22;44354;46.192;-1.076;2022-12-26T17:30:35;9.60;99.90
58568;DHT22;44354;46.192;-1.076;2022-12-26T17:33:25;9.50;99.90
58568;DHT22;44354;46.192;-1.076;2022-12-26T17:36:01;9.50;99.90
58568;DHT22;44354;46.192;-1.076;2022-12-26T17:38:27;9.50;99.90
58568;DHT22;44354;46.192;-1.076;2022-12-26T17:40:57;9.50;99.90
58568;DHT22;44354;46.192;-1.076;2022-12-26T17:43:37;9.50;99.90
58568;DHT22;44354;46.192;-1.076;2022-12-26T17:46:04;9.50;99.90
58568;DHT22;44354;46.192;-1.076;2022-12-26T17:48:31;9.40;99.90
58568;DHT22;44354;46.192;-1.076;2022-12-26T17:51:00;9.50;99.90
58568;DHT22;44354;46.192;-1.076;2022-12-26T17:53:28;9.50;99.90
58568;DHT22;44354;46.192;-1.076;2022-12-26T17:55:57;9.50;99.90
58568;DHT22;44354;46.192;-1.076;2022-12-26T17:58:23;9.40;99.90
58568;DHT22;44354;46.192;-1.076;2022-12-26T18:00:50;9.40;99.90
58568;DHT22;44354;46.192;-1.076;2022-12-26T18:03:16;9.40;99.90
58568;DHT22;44354;46.192;-1.076;2022-12-26T18:05:42;9.40;99.90
58568;DHT22;44354;46.192;-1.076;2022-12-26T18:08:26;9.40;99.90
58568;DHT22;44354;46.192;-1.076;2022-12-26T18:10:53;9.30;99.90
58568;DHT22;44354;46.192;-1.076;2022-12-26T18:13:19;9.30;99.90
58568;DHT22;44354;46.192;-1.076;2022-12-26T18:15:46;9.30;99.90
58568;DHT22;44354;46.192;-1.076;2022-12-26T18:20:58;9.20;99.90
58568;DHT22;44354;46.192;-1.076;2022-12-26T18:23:24;9.20;99.90
58568;DHT22;44354;46.192;-1.076;2022-12-26T18:25:50;9.10;99.90
58568;DHT22;44354;46.192;-1.076;2022-12-26T18:28:16;9.10;99.90
58568;DHT22;44354;46.192;-1.076;2022-12-26T18:30:43;9.10;99.90
58568;DHT22;44354;46.192;-1.076;2022-12-26T18:33:10;9.00;99.90
58568;DHT22;44354;46.192;-1.076;2022-12-26T18:35:40;9.00;99.90
58568;DHT22;44354;46.192;-1.076;2022-12-26T18:38:07;9.00;99.90
58568;DHT22;44354;46.192;-1.076;2022-12-26T18:40:38;9.00;99.90
58568;DHT22;44354;46.192;-1.076;2022-12-26T18:43:05;9.00;99.90
58568;DHT22;44354;46.192;-1.076;2022-12-26T18:45:32;9.00;99.90
58568;DHT22;44354;46.192;-1.076;2022-12-26T18:47:58;8.90;99.90
58568;DHT22;44354;46.192;-1.076;2022-12-26T18:50:26;8.90;99.90
58568;DHT22;44354;46.192;-1.076;2022-12-26T18:52:51;9.00;99.90
58568;DHT22;44354;46.192;-1.076;2022-12-26T18:55:17;8.90;99.90
58568;DHT22;44354;46.192;-1.076;2022-12-26T18:57:43;8.90;99.90
58568;DHT22;44354;46.192;-1.076;2022-12-26T19:00:12;8.80;99.90
58568;DHT22;44354;46.192;-1.076;2022-12-26T19:02:39;8.80;99.90
58568;DHT22;44354;46.192;-1.076;2022-12-26T19:05:05;8.70;99.90
58568;DHT22;44354;46.192;-1.076;2022-12-26T19:07:31;8.70;99.90
58568;DHT22;44354;46.192;-1.076;2022-12-26T19:09:57;8.70;99.90
58568;DHT22;44354;46.192;-1.076;2022-12-26T19:12:25;8.60;99.90
58568;DHT22;44354;46.192;-1.076;2022-12-26T19:14:51;8.60;99.90
58568;DHT22;44354;46.192;-1.076;2022-12-26T19:17:17;8.60;99.90
58568;DHT22;44354;46.192;-1.076;2022-12-26T19:19:43;8.50;99.90
58568;DHT22;44354;46.192;-1.076;2022-12-26T19:22:09;8.50;99.90
58568;DHT22;44354;46.192;-1.076;2022-12-26T19:24:35;8.50;99.90
58568;DHT22;44354;46.192;-1.076;2022-12-26T19:27:01;8.50;99.90
58568;DHT22;44354;46.192;-1.076;2022-12-26T19:29:27;8.40;99.90
58568;DHT22;44354;46.192;-1.076;2022-12-26T19:31:53;8.40;99.90
58568;DHT22;44354;46.192;-1.076;2022-12-26T19:34:21;8.30;99.90
58568;DHT22;44354;46.192;-1.076;2022-12-26T19:36:48;8.20;99.90